Hudgins, Virginia
Current Conditions -  °F | °C
As of 3:15 AM on Thursday 27 Nov 2014 (Local Time) from KW75 Reporting Station
Clear Clear  
Wind Chill: 35°   Ceiling: Unl
Heat Index: 35°   Visibility: 10mi
Dew Point: 34°   Wind: 3mph
Humidity: 95%   Direction: 250°WSW
Pressure: 30.04"   Gusts: NA
Location:  37.47°N, 76.33°W
Report Text: KW75 270815Z AUTO 25003KT 10SM CLR 02/01 A3004 RMK AO1 T00180011
Loading
Personal Weather Stations






























Interactive Weather Map New forecast layout! Learn more

10-Day Weather Forecast

Advertisements
Track Severe Weather on mobile